createdAt,value
2022-08-22T00:01:38.066Z,13.65
2022-08-22T00:06:52.704Z,13.73
2022-08-22T00:17:49.347Z,14.93
2022-08-22T00:22:52.550Z,15.82
2022-08-22T00:27:54.909Z,12.90
2022-08-22T00:32:53.756Z,13.02
2022-08-22T00:37:54.772Z,15.00
2022-08-22T00:43:21.253Z,13.98
2022-08-22T00:48:36.647Z,12.98
2022-08-22T00:53:51.334Z,13.73
2022-08-22T00:59:22.989Z,14.32
2022-08-22T01:04:49.856Z,15.70
2022-08-22T01:10:01.452Z,15.25
2022-08-22T01:14:59.473Z,12.18
2022-08-22T01:20:40.468Z,13.45
2022-08-22T01:31:35.011Z,12.52
2022-08-22T01:36:55.758Z,13.25
2022-08-22T01:42:32.930Z,12.52
2022-08-22T01:47:36.634Z,15.48
2022-08-22T01:52:38.766Z,13.90
2022-08-22T01:57:32.181Z,11.77
2022-08-22T02:02:44.742Z,12.02
2022-08-22T02:07:50.117Z,12.90
2022-08-22T02:12:49.169Z,14.02
2022-08-22T02:18:01.100Z,13.35
2022-08-22T02:23:01.869Z,15.52
2022-08-22T02:28:02.569Z,15.73
2022-08-22T02:33:04.395Z,14.55
2022-08-22T02:38:13.394Z,12.95
2022-08-22T02:43:18.255Z,14.00
2022-08-22T02:48:21.335Z,13.93
2022-08-22T02:53:24.712Z,14.05
2022-08-22T02:58:36.993Z,14.95
2022-08-22T03:03:37.375Z,16.25
2022-08-22T03:08:38.431Z,13.65
2022-08-22T03:13:45.936Z,14.82
2022-08-22T03:18:50.008Z,16.20
2022-08-22T03:23:53.760Z,15.23
2022-08-22T03:29:03.082Z,16.73
2022-08-22T03:34:26.727Z,17.02
2022-08-22T03:39:49.296Z,15.43
2022-08-22T03:45:09.412Z,13.55
2022-08-22T03:50:34.483Z,16.55
2022-08-22T03:55:47.767Z,14.60
2022-08-22T04:01:16.117Z,17.13
2022-08-22T04:06:37.976Z,18.20
2022-08-22T04:12:13.848Z,14.55
2022-08-22T04:17:32.361Z,14.18
2022-08-22T04:22:50.984Z,14.02
2022-08-22T04:27:56.039Z,13.20
2022-08-22T04:32:58.004Z,15.20
2022-08-22T04:37:58.833Z,14.35
2022-08-22T04:42:58.330Z,15.88
2022-08-22T04:47:59.457Z,16.55
2022-08-22T04:53:11.401Z,13.50
2022-08-22T04:58:19.070Z,15.13
2022-08-22T05:03:18.020Z,13.20
2022-08-22T05:08:15.195Z,13.45
2022-08-22T05:13:14.407Z,29.20
2022-08-22T05:18:10.795Z,27.00
2022-08-22T05:23:17.528Z,15.98
2022-08-22T05:28:16.928Z,12.52
2022-08-22T05:33:24.182Z,15.20
2022-08-22T05:38:23.634Z,15.45
2022-08-22T05:43:21.251Z,14.18
2022-08-22T05:48:26.049Z,11.13
2022-08-22T05:53:33.132Z,13.32
2022-08-22T05:58:49.745Z,12.85
2022-08-22T06:03:59.962Z,11.32
2022-08-22T06:09:06.055Z,17.77
2022-08-22T06:14:13.004Z,13.20
2022-08-22T06:19:19.500Z,11.85
2022-08-22T06:24:29.766Z,12.30
2022-08-22T06:29:33.897Z,13.18
2022-08-22T06:34:35.974Z,12.15
2022-08-22T06:39:37.307Z,12.20
2022-08-22T06:44:51.969Z,12.65
2022-08-22T06:50:01.779Z,12.20
2022-08-22T06:55:33.471Z,12.65
2022-08-22T07:00:52.413Z,12.05
2022-08-22T07:05:59.280Z,13.40
2022-08-22T07:11:00.037Z,11.65
2022-08-22T07:16:02.475Z,9.85
2022-08-22T07:21:00.446Z,12.27
2022-08-22T07:26:02.934Z,10.27
2022-08-22T07:30:59.277Z,10.52
2022-08-22T07:36:16.334Z,10.93
2022-08-22T07:41:20.294Z,14.10
2022-08-22T07:46:34.464Z,12.27
2022-08-22T07:51:35.909Z,9.88
2022-08-22T07:56:36.571Z,10.43
2022-08-22T08:01:31.371Z,10.65
2022-08-22T08:07:41.570Z,9.98
2022-08-22T08:13:06.674Z,11.25
2022-08-22T08:20:27.418Z,10.48
2022-08-22T08:24:40.537Z,9.75
2022-08-22T08:29:39.185Z,9.13
2022-08-22T08:40:37.751Z,9.20
2022-08-22T08:46:02.848Z,11.55
2022-08-22T08:51:18.404Z,8.75
2022-08-22T08:56:33.116Z,12.52
2022-08-22T09:01:54.023Z,8.00
2022-08-22T09:07:19.921Z,10.43
2022-08-22T09:12:32.512Z,10.32
2022-08-22T09:18:07.561Z,9.43
2022-08-22T09:23:53.436Z,9.38
2022-08-22T09:29:02.461Z,10.75
2022-08-22T09:34:08.325Z,10.73
2022-08-22T09:39:16.072Z,8.43
2022-08-22T09:44:25.474Z,7.73
2022-08-22T10:02:45.030Z,7.85
2022-08-22T10:08:19.732Z,8.57
2022-08-22T10:26:22.822Z,9.65
2022-08-22T10:31:46.053Z,8.68
2022-08-22T10:42:41.690Z,7.85
2022-08-22T10:48:57.589Z,8.23
2022-08-22T10:54:43.496Z,9.02
2022-08-22T11:06:22.812Z,8.35
2022-08-22T11:11:48.258Z,7.53
2022-08-22T11:17:40.631Z,7.57
2022-08-22T11:23:34.984Z,8.13
2022-08-22T11:29:33.161Z,8.02
2022-08-22T11:34:49.069Z,10.07
2022-08-22T11:40:11.876Z,7.03
2022-08-22T11:45:22.281Z,8.77
2022-08-22T11:50:29.689Z,6.03
2022-08-22T11:55:44.188Z,7.20
2022-08-22T12:01:52.960Z,6.43
2022-08-22T12:07:13.545Z,10.20
2022-08-22T12:13:12.064Z,7.03
2022-08-22T12:19:00.087Z,6.35
2022-08-22T12:24:20.979Z,7.57
2022-08-22T12:29:45.107Z,7.15
2022-08-22T12:35:14.096Z,6.72
2022-08-22T12:40:45.862Z,6.15
2022-08-22T12:47:11.786Z,6.97
2022-08-22T12:52:33.236Z,5.88
2022-08-22T12:57:54.009Z,6.70
2022-08-22T13:08:43.824Z,6.32
2022-08-22T13:13:59.603Z,6.60
2022-08-22T13:19:07.579Z,6.05
2022-08-22T13:24:16.987Z,7.60
2022-08-22T13:29:42.710Z,5.82
2022-08-22T13:34:53.355Z,7.40
2022-08-22T13:40:03.914Z,6.43
2022-08-22T13:45:07.319Z,6.43
2022-08-22T13:50:12.194Z,5.40
2022-08-22T13:55:34.161Z,6.17
2022-08-22T14:01:21.759Z,5.40
2022-08-22T14:06:53.739Z,7.75
2022-08-22T14:18:47.616Z,5.07
2022-08-22T14:23:50.788Z,7.47
2022-08-22T14:29:02.510Z,6.10
2022-08-22T14:34:03.615Z,7.60
2022-08-22T14:39:02.859Z,7.05
2022-08-22T14:44:09.986Z,8.38
2022-08-22T14:49:24.933Z,8.38
2022-08-22T14:54:28.968Z,8.02
2022-08-22T15:00:00.303Z,7.65
2022-08-22T15:05:01.625Z,8.27
2022-08-22T15:10:03.540Z,7.80
2022-08-22T15:15:03.707Z,6.53
2022-08-22T15:20:12.209Z,7.43
2022-08-22T15:25:13.185Z,6.32
2022-08-22T15:30:20.431Z,12.07
2022-08-22T15:36:15.911Z,7.25
2022-08-22T15:41:49.044Z,5.85
2022-08-22T15:47:24.144Z,7.40
2022-08-22T15:52:28.693Z,5.75
2022-08-22T15:57:29.665Z,8.77
2022-08-22T16:02:35.038Z,13.30
2022-08-22T16:07:51.558Z,9.27
2022-08-22T16:13:50.267Z,6.28
2022-08-22T16:19:37.199Z,7.05
2022-08-22T16:25:51.849Z,8.15
2022-08-22T16:44:23.759Z,12.20
2022-08-22T16:50:17.029Z,9.13
2022-08-22T16:56:11.544Z,10.20
2022-08-22T17:13:42.399Z,11.85
2022-08-22T17:19:30.378Z,9.05
2022-08-22T17:39:01.279Z,10.10
2022-08-22T17:46:01.630Z,11.90
2022-08-22T17:51:13.611Z,11.15
2022-08-22T18:23:50.711Z,10.32
2022-08-22T18:35:54.654Z,8.45
2022-08-22T18:41:27.624Z,8.43
2022-08-22T18:52:40.937Z,10.25
2022-08-22T18:58:34.516Z,10.10
2022-08-22T19:10:56.659Z,11.55
2022-08-22T19:16:42.011Z,11.60
2022-08-22T19:22:16.258Z,11.48
2022-08-22T19:27:33.248Z,9.27
2022-08-22T19:33:08.136Z,7.35
2022-08-22T19:38:05.407Z,11.40
2022-08-22T19:43:02.409Z,8.38
2022-08-22T19:48:13.617Z,6.07
2022-08-22T19:53:38.995Z,7.82
2022-08-22T19:58:52.507Z,9.57
2022-08-22T20:04:03.132Z,12.75
2022-08-22T20:09:21.898Z,6.78
2022-08-22T20:14:30.061Z,8.32
2022-08-22T20:19:38.237Z,6.07
2022-08-22T20:24:40.431Z,8.93
2022-08-22T20:29:40.890Z,7.18
2022-08-22T20:34:43.368Z,9.38
2022-08-22T20:39:49.953Z,7.57
2022-08-22T20:44:56.489Z,10.40
2022-08-22T20:49:57.447Z,11.45
2022-08-22T20:55:01.891Z,6.05
2022-08-22T20:59:59.834Z,10.50
2022-08-22T21:05:02.686Z,8.52
2022-08-22T21:10:25.426Z,8.27
2022-08-22T21:15:32.888Z,7.65
2022-08-22T21:20:26.378Z,7.35
2022-08-22T21:25:19.799Z,10.75
2022-08-22T21:30:26.293Z,8.77
2022-08-22T21:35:26.654Z,8.70
2022-08-22T21:40:23.202Z,9.43
2022-08-22T21:45:32.911Z,12.55
2022-08-22T21:50:34.766Z,7.55
2022-08-22T21:55:30.194Z,8.52
2022-08-22T22:00:49.984Z,9.48
2022-08-22T22:05:46.118Z,5.85
2022-08-22T22:10:43.406Z,10.13
2022-08-22T22:15:42.519Z,10.05
2022-08-22T22:20:37.515Z,8.02
2022-08-22T22:25:39.652Z,8.45
2022-08-22T22:30:37.354Z,8.30
2022-08-22T22:35:31.534Z,9.38
2022-08-22T22:40:28.617Z,8.23
2022-08-22T22:45:22.917Z,14.88
2022-08-22T22:50:19.407Z,9.43
2022-08-22T22:55:12.952Z,9.23
2022-08-22T23:00:20.059Z,8.52
2022-08-22T23:05:16.072Z,8.10
2022-08-22T23:10:17.669Z,9.93
2022-08-22T23:15:14.722Z,9.25
2022-08-22T23:20:10.205Z,8.75
2022-08-22T23:25:03.637Z,9.82
2022-08-22T23:30:05.932Z,9.93
2022-08-22T23:34:59.609Z,10.77
2022-08-22T23:39:56.600Z,11.55
2022-08-22T23:44:50.161Z,10.07
2022-08-22T23:49:44.336Z,8.88
2022-08-22T23:54:40.642Z,10.63
2022-08-22T23:59:38.396Z,10.48
